Terminal Aerodrome Forecast
Issued by NWS Louisville, KY

Home | Current Version | Previous Version | Text Only | Print | Product List | Glossary On
Versions: 1 2 3 4 5 6 7 8 9 10 11 12 13 14 15 16 17 18 19 20 21 22 23 24 25 26 27
000
FTUS43 KLMK 050600 AAA
TAFBWG
TAF AMD
KBWG 050658Z 0507/0606 35010KT 3/4SM -SN BR OVC015
     FM051100 02013KT 2SM -SN BR OVC009
     FM051700 36005KT P6SM BKN025=

USA.gov is the U.S. government's official web portal to all federal, state and local government web resources and services.